»·PEaware :: N786SC KFAT-KBFL

N786SC :: KFAT-KBFL

FLIGHT INFORMATION

Flight Status: Arrived
Operator: Privately registered:
United States
More flights under this callsign
Pilot: Jereme M. (20698)
Aircraft: CESSNA 172 SKYHAWK
(C172)
More flights by this aircraft type
Origin: KFAT Fresno Yosemite Intl
United States
Destination: KBFL Meadows
United States
More flights between these airports :: More routes between these airports
Route: +
File this flight plan on PilotEdge
Remarks:
Altitude:
(Current/Filed)
5,500ft
Speed:
(Current/Filed)
0kts
Departed: 16-Oct-18 03:07 PM
Arrived: 16-Oct-18 04:01 PM
Distance/Time
Traveled:
87nm/0:54
Distance/Time
To Go:
Arrived

Flight Plot

Page will automatically refresh every two minutes.


Map Options




Map Legend


Flown Route
Filed Route
Departure Airport
Arrival Airport
Navaid (VOR, NDB)
Fix

Horizontal Profiles

Position Reports

Time Latitude Longitude Heading Altitude Ground
Speed
16-Oct-18 14:58 36.774487 -119.723882 45 338ft 0kts
16-Oct-18 14:59 36.774487 -119.723882 45 338ft 0kts
16-Oct-18 15:00 36.774487 -119.723882 45 338ft 0kts
16-Oct-18 15:01 36.774487 -119.723882 45 338ft 0kts
16-Oct-18 15:02 36.774487 -119.723882 45 338ft 0kts
16-Oct-18 15:03 36.774671 -119.723701 25 338ft 6kts
16-Oct-18 15:04 36.775446 -119.721580 121 338ft 16kts
16-Oct-18 15:05 36.771740 -119.715118 124 338ft 27kts
16-Oct-18 15:06 36.770034 -119.710991 36 338ft 0kts
16-Oct-18 15:07 36.770034 -119.710991 36 338ft 0kts
16-Oct-18 15:08 36.770034 -119.710991 36 338ft 0kts
16-Oct-18 15:09 36.776121 -119.720169 308 451ft 79kts
16-Oct-18 15:10 36.789758 -119.740703 289 1132ft 77kts
16-Oct-18 15:11 36.773022 -119.759317 213 1674ft 85kts
16-Oct-18 15:12 36.751031 -119.770366 194 2238ft 86kts
16-Oct-18 15:13 36.727615 -119.777598 195 2767ft 87kts
16-Oct-18 15:14 36.703762 -119.778825 155 3260ft 91kts
16-Oct-18 15:15 36.681232 -119.764164 150 3747ft 89kts
16-Oct-18 15:16 36.660331 -119.748730 150 4245ft 86kts
16-Oct-18 15:17 36.639463 -119.733378 151 4671ft 90kts
16-Oct-18 15:18 36.617497 -119.717377 150 5074ft 92kts
16-Oct-18 15:19 36.595399 -119.701368 149 5468ft 92kts
16-Oct-18 15:20 36.569234 -119.682657 150 5485ft 119kts
16-Oct-18 15:21 36.540428 -119.662319 150 5485ft 117kts
16-Oct-18 15:22 36.512454 -119.642707 149 5484ft 114kts
16-Oct-18 15:23 36.484857 -119.623445 149 5485ft 113kts
16-Oct-18 15:24 36.457186 -119.604211 149 5486ft 113kts
16-Oct-18 15:25 36.429635 -119.585155 150 5487ft 113kts
16-Oct-18 15:26 36.401953 -119.566100 150 5489ft 113kts
16-Oct-18 15:27 36.374327 -119.547175 150 5491ft 113kts
16-Oct-18 15:28 36.346591 -119.528259 150 5494ft 113kts
16-Oct-18 15:29 36.318971 -119.509515 150 5496ft 113kts
16-Oct-18 15:30 36.291255 -119.490793 150 5499ft 113kts
16-Oct-18 15:31 36.263506 -119.472140 150 5502ft 113kts
16-Oct-18 15:32 36.237011 -119.454410 150 5505ft 113kts
16-Oct-18 15:33 36.209310 -119.435963 150 5508ft 113kts
16-Oct-18 15:34 36.181617 -119.417613 150 5511ft 112kts
16-Oct-18 15:35 36.154503 -119.399722 150 5514ft 112kts
16-Oct-18 15:36 36.127451 -119.381966 150 5517ft 112kts
16-Oct-18 15:37 36.099660 -119.364413 156 5519ft 112kts
16-Oct-18 15:38 36.070391 -119.351164 158 5522ft 112kts
16-Oct-18 15:39 36.041618 -119.338001 158 5525ft 112kts
16-Oct-18 15:40 36.012485 -119.324498 158 5528ft 112kts
16-Oct-18 15:41 35.983341 -119.311075 158 5532ft 112kts
16-Oct-18 15:42 35.954169 -119.297729 158 5535ft 111kts
16-Oct-18 15:43 35.925046 -119.284489 159 5539ft 111kts
16-Oct-18 15:44 35.896636 -119.271650 159 5542ft 111kts
16-Oct-18 15:45 35.868272 -119.258640 158 5540ft 111kts
16-Oct-18 15:46 35.839405 -119.245039 158 5538ft 111kts
16-Oct-18 15:47 35.810700 -119.231574 158 5536ft 111kts
16-Oct-18 15:48 35.782358 -119.218347 158 5534ft 111kts
16-Oct-18 15:49 35.753430 -119.204920 158 5533ft 111kts
16-Oct-18 15:50 35.724494 -119.191552 158 5531ft 111kts
16-Oct-18 15:51 35.695682 -119.178316 158 5530ft 111kts
16-Oct-18 15:52 35.666300 -119.164859 158 5096ft 112kts
16-Oct-18 15:53 35.637322 -119.151559 159 4594ft 111kts
16-Oct-18 15:54 35.608639 -119.138349 159 4096ft 110kts
16-Oct-18 15:55 35.581999 -119.126007 159 3627ft 108kts
16-Oct-18 15:56 35.554177 -119.112968 159 3089ft 107kts
16-Oct-18 15:57 35.526067 -119.099669 162 2479ft 108kts
16-Oct-18 15:58 35.497531 -119.090489 162 2040ft 104kts
16-Oct-18 15:59 35.470089 -119.078412 162 1580ft 105kts
16-Oct-18 16:00 35.447645 -119.058529 129 1351ft 101kts
16-Oct-18 16:01 35.432268 -119.033730 127 1313ft 79kts
16-Oct-18 16:02 35.420965 -119.040291 303 780ft 65kts
16-Oct-18 16:03 35.430963 -119.052623 316 510ft 33kts
16-Oct-18 16:04 35.436150 -119.057972 31 510ft 8kts
16-Oct-18 16:05 35.436273 -119.057803 67 510ft 0kts
16-Oct-18 16:06 35.433539 -119.053603 138 510ft 30kts
16-Oct-18 16:07 35.431188 -119.048208 321 510ft 0kts
16-Oct-18 16:08 35.431188 -119.048208 321 510ft 0kts
16-Oct-18 16:09 35.431187 -119.048208 321 510ft 0kts
16-Oct-18 16:10 35.431187 -119.048208 321 510ft 0kts
16-Oct-18 16:11 35.431187 -119.048208 321 510ft 0kts
16-Oct-18 16:12 35.431187 -119.048208 321 510ft 0kts
16-Oct-18 16:13 35.431187 -119.048208 321 510ft 0kts
16-Oct-18 16:14 35.431187 -119.048208 321 510ft 0kts

Navigation Log

Ident Type
1. KFAT Airport
2. KBFL Airport